createdAt,value
2018-12-07T00:00:36.452Z,0.00
2018-12-07T00:01:36.580Z,0.00
2018-12-07T00:02:36.720Z,0.00
2018-12-07T00:03:36.867Z,0.00
2018-12-07T00:04:36.998Z,0.00
2018-12-07T00:05:37.130Z,0.00
2018-12-07T00:06:37.261Z,0.00
2018-12-07T00:07:37.392Z,0.00
2018-12-07T00:08:37.526Z,0.00
2018-12-07T00:09:37.653Z,0.00
2018-12-07T00:10:37.790Z,0.00
2018-12-07T00:11:37.922Z,0.00
2018-12-07T00:12:38.069Z,0.00
2018-12-07T00:13:38.188Z,0.00
2018-12-07T00:14:38.325Z,0.00
2018-12-07T00:15:38.461Z,0.00
2018-12-07T00:16:38.589Z,0.00
2018-12-07T00:17:38.742Z,0.00
2018-12-07T00:18:38.876Z,0.00
2018-12-07T00:19:39.005Z,0.00
2018-12-07T00:20:39.137Z,0.00
2018-12-07T00:21:39.274Z,0.00
2018-12-07T00:22:39.399Z,0.00
2018-12-07T00:23:39.531Z,0.00
2018-12-07T00:24:39.663Z,0.00
2018-12-07T00:25:39.796Z,0.00
2018-12-07T00:26:39.927Z,0.00
2018-12-07T00:27:40.065Z,0.00
2018-12-07T00:28:40.195Z,0.00
2018-12-07T00:29:40.333Z,0.00
2018-12-07T00:30:40.463Z,0.00
2018-12-07T00:31:40.594Z,0.00
2018-12-07T00:32:40.732Z,0.00
2018-12-07T00:33:40.860Z,0.00
2018-12-07T00:34:40.993Z,0.00
2018-12-07T00:35:41.126Z,0.00
2018-12-07T00:36:41.268Z,0.00
2018-12-07T00:37:41.395Z,0.00
2018-12-07T00:38:41.529Z,0.00
2018-12-07T00:39:41.665Z,0.00
2018-12-07T00:40:41.796Z,0.00
2018-12-07T00:41:41.933Z,0.00
2018-12-07T00:42:42.063Z,0.00
2018-12-07T00:43:42.262Z,0.00
2018-12-07T00:44:42.338Z,0.00
2018-12-07T00:45:42.471Z,0.00
2018-12-07T00:46:43.162Z,0.00
2018-12-07T00:47:42.697Z,0.00
2018-12-07T00:48:42.828Z,0.00
2018-12-07T00:49:42.959Z,0.00
2018-12-07T00:50:43.100Z,0.00
2018-12-07T00:51:43.232Z,0.00
2018-12-07T00:52:43.361Z,0.00
2018-12-07T00:53:43.495Z,0.00
2018-12-07T00:54:43.626Z,0.00
2018-12-07T00:55:43.761Z,0.00
2018-12-07T00:56:43.890Z,0.00
2018-12-07T00:57:44.036Z,0.00
2018-12-07T00:58:44.164Z,0.00
2018-12-07T00:59:44.302Z,0.00
2018-12-07T01:00:44.468Z,0.00
2018-12-07T01:01:44.609Z,0.00
2018-12-07T01:02:44.741Z,0.00
2018-12-07T01:03:44.877Z,0.00
2018-12-07T01:04:45.011Z,0.00
2018-12-07T01:05:45.138Z,0.00
2018-12-07T01:06:45.275Z,0.00
2018-12-07T01:07:45.410Z,0.00
2018-12-07T01:08:45.545Z,0.00
2018-12-07T01:09:45.684Z,0.00
2018-12-07T01:10:45.815Z,0.00
2018-12-07T01:11:45.948Z,0.00
2018-12-07T01:12:46.088Z,0.00
2018-12-07T01:13:46.215Z,0.00
2018-12-07T01:14:46.349Z,0.00
2018-12-07T01:15:46.486Z,0.00
2018-12-07T01:16:46.614Z,0.00
2018-12-07T01:17:46.749Z,0.00
2018-12-07T01:18:46.881Z,0.00
2018-12-07T01:19:47.015Z,0.00
2018-12-07T01:20:47.153Z,0.00
2018-12-07T01:21:47.282Z,0.00
2018-12-07T01:22:47.412Z,0.00
2018-12-07T01:23:47.547Z,0.00
2018-12-07T01:24:47.685Z,0.00
2018-12-07T01:25:47.810Z,0.00
2018-12-07T01:26:48.013Z,0.00
2018-12-07T01:27:48.077Z,0.00
2018-12-07T01:28:48.212Z,0.00
2018-12-07T01:29:48.350Z,0.00
2018-12-07T01:30:48.485Z,0.00
2018-12-07T01:31:48.614Z,0.00
2018-12-07T01:32:49.670Z,0.00
2018-12-07T01:33:48.966Z,0.00
2018-12-07T01:34:49.011Z,0.00
2018-12-07T01:35:49.141Z,0.00
2018-12-07T01:36:49.278Z,0.00
2018-12-07T01:37:49.411Z,0.00
2018-12-07T01:38:49.546Z,0.00
2018-12-07T01:39:49.677Z,0.00
2018-12-07T01:40:49.826Z,0.00
2018-12-07T01:41:49.957Z,0.00
2018-12-07T01:42:50.094Z,0.00
2018-12-07T01:43:50.230Z,0.00
2018-12-07T01:44:50.361Z,0.00
2018-12-07T01:45:50.489Z,0.00
2018-12-07T01:46:50.629Z,0.00
2018-12-07T01:47:50.766Z,0.00
2018-12-07T01:48:50.897Z,0.00
2018-12-07T01:49:51.030Z,0.00
2018-12-07T01:50:51.172Z,0.00
2018-12-07T01:51:51.299Z,0.00
2018-12-07T01:52:51.440Z,0.00
2018-12-07T01:53:51.572Z,0.00
2018-12-07T01:54:51.707Z,0.00
2018-12-07T01:55:51.841Z,0.00
2018-12-07T01:56:51.972Z,0.00
2018-12-07T01:57:52.104Z,0.00
2018-12-07T01:58:52.235Z,0.00
2018-12-07T01:59:52.372Z,0.00
2018-12-07T02:00:52.500Z,0.00
2018-12-07T02:01:52.636Z,0.00
2018-12-07T02:02:52.770Z,0.00
2018-12-07T02:03:52.899Z,0.00
2018-12-07T02:04:53.042Z,0.00
2018-12-07T02:05:53.167Z,0.00
2018-12-07T02:06:53.304Z,0.00
2018-12-07T02:07:53.434Z,0.00
2018-12-07T02:08:53.624Z,0.00
2018-12-07T02:09:53.703Z,0.00
2018-12-07T02:10:53.847Z,0.00
2018-12-07T02:11:53.989Z,0.00
2018-12-07T02:12:54.121Z,0.00
2018-12-07T02:13:54.259Z,0.00
2018-12-07T02:14:54.389Z,0.00
2018-12-07T02:15:54.538Z,0.00
2018-12-07T02:16:54.671Z,0.00
2018-12-07T02:17:54.805Z,0.00
2018-12-07T02:18:54.949Z,0.00
2018-12-07T02:19:55.081Z,0.00
2018-12-07T02:20:55.216Z,0.00
2018-12-07T02:21:55.347Z,0.00
2018-12-07T02:22:55.484Z,0.00
2018-12-07T02:23:55.616Z,0.00
2018-12-07T02:24:55.756Z,0.00
2018-12-07T02:25:55.883Z,0.00
2018-12-07T02:26:56.019Z,0.00
2018-12-07T02:27:56.154Z,0.00
2018-12-07T02:28:56.280Z,0.00
2018-12-07T02:29:56.413Z,0.00
2018-12-07T02:30:56.547Z,0.00
2018-12-07T02:31:56.683Z,0.00
2018-12-07T02:32:56.829Z,0.00
2018-12-07T02:33:56.951Z,0.00
2018-12-07T02:34:57.082Z,0.00
2018-12-07T02:35:57.212Z,0.00
2018-12-07T02:36:57.353Z,0.00
2018-12-07T02:37:57.482Z,0.00
2018-12-07T02:38:57.618Z,0.00
2018-12-07T02:39:57.745Z,0.00
2018-12-07T02:40:57.879Z,0.00
2018-12-07T02:41:58.010Z,0.00
2018-12-07T02:42:58.142Z,0.00
2018-12-07T02:43:58.263Z,0.00
2018-12-07T02:44:58.424Z,0.00
2018-12-07T02:45:58.552Z,0.00
2018-12-07T02:46:58.686Z,0.00
2018-12-07T02:47:58.804Z,0.00
2018-12-07T02:48:58.935Z,0.00
2018-12-07T02:49:59.071Z,0.00
2018-12-07T02:50:59.201Z,0.00
2018-12-07T02:51:59.334Z,0.00
2018-12-07T02:52:59.467Z,0.00
2018-12-07T02:53:59.603Z,0.00
2018-12-07T02:54:59.737Z,0.00
2018-12-07T02:55:59.877Z,0.00
2018-12-07T02:57:00.006Z,0.00
2018-12-07T02:58:00.132Z,0.00
2018-12-07T02:59:00.266Z,0.00
2018-12-07T03:00:00.512Z,0.00
2018-12-07T03:01:00.542Z,0.00
2018-12-07T03:02:00.676Z,0.00
2018-12-07T03:03:00.819Z,0.00
2018-12-07T03:04:00.998Z,0.00
2018-12-07T03:05:01.131Z,0.00
2018-12-07T03:06:01.262Z,0.00
2018-12-07T03:07:01.431Z,0.00
2018-12-07T03:08:01.643Z,0.00
2018-12-07T03:09:01.646Z,0.00
2018-12-07T03:10:01.781Z,0.00
2018-12-07T03:11:01.913Z,0.00
2018-12-07T03:12:02.063Z,0.00
2018-12-07T03:13:02.185Z,0.00
2018-12-07T03:14:02.885Z,0.00
2018-12-07T03:15:02.436Z,0.00
2018-12-07T03:16:02.571Z,0.00
2018-12-07T03:17:02.702Z,0.00
2018-12-07T03:18:02.837Z,0.00
2018-12-07T03:19:02.968Z,0.00
2018-12-07T03:20:03.095Z,0.00
2018-12-07T03:21:03.236Z,0.00
2018-12-07T03:22:03.372Z,0.00
2018-12-07T03:23:03.498Z,0.00
2018-12-07T03:24:03.645Z,0.00
2018-12-07T03:25:03.766Z,0.00
2018-12-07T03:26:03.901Z,0.00
2018-12-07T03:27:04.036Z,0.00
2018-12-07T03:28:04.220Z,0.00
2018-12-07T03:29:04.335Z,0.00
2018-12-07T03:30:04.476Z,0.00
2018-12-07T03:31:04.608Z,0.00
2018-12-07T03:32:04.739Z,0.00
2018-12-07T03:33:04.869Z,0.00
2018-12-07T03:34:05.008Z,0.00
2018-12-07T03:35:05.135Z,0.00
2018-12-07T03:36:05.272Z,0.00
2018-12-07T03:37:05.406Z,0.00
2018-12-07T03:38:05.539Z,0.00
2018-12-07T03:39:05.685Z,0.00
2018-12-07T03:40:05.806Z,0.00
2018-12-07T03:41:05.936Z,0.00
2018-12-07T03:42:06.070Z,0.00
2018-12-07T03:43:06.206Z,0.00
2018-12-07T03:44:06.381Z,0.00
2018-12-07T03:45:06.473Z,0.00
2018-12-07T03:46:06.677Z,0.00
2018-12-07T03:47:06.743Z,0.00
2018-12-07T03:48:06.878Z,0.00
2018-12-07T03:49:07.010Z,0.00
2018-12-07T03:50:07.152Z,0.00
2018-12-07T03:51:07.287Z,0.00
2018-12-07T03:52:07.412Z,0.00
2018-12-07T03:53:07.545Z,0.00
2018-12-07T03:54:07.679Z,0.00
2018-12-07T03:55:07.820Z,0.00
2018-12-07T03:56:07.944Z,0.00
2018-12-07T03:57:08.089Z,0.00
2018-12-07T03:58:08.211Z,0.00
2018-12-07T03:59:08.347Z,0.00
2018-12-07T04:00:08.542Z,0.00
2018-12-07T04:01:08.552Z,0.00
2018-12-07T04:02:08.682Z,0.00
2018-12-07T04:03:08.818Z,0.00
2018-12-07T04:04:08.953Z,0.00
2018-12-07T04:05:09.090Z,0.00
2018-12-07T04:06:09.227Z,0.00
2018-12-07T04:07:09.359Z,0.00
2018-12-07T04:08:09.487Z,0.00
2018-12-07T04:09:09.625Z,0.00
2018-12-07T04:10:09.757Z,0.00
2018-12-07T04:11:09.889Z,0.00
2018-12-07T04:12:10.022Z,0.00
2018-12-07T04:13:10.161Z,0.00
2018-12-07T04:14:10.291Z,0.00
2018-12-07T04:15:10.420Z,0.00
2018-12-07T04:16:10.564Z,0.00
2018-12-07T04:17:10.722Z,0.00
2018-12-07T04:18:10.855Z,0.00
2018-12-07T04:19:10.984Z,0.00
2018-12-07T04:20:11.118Z,0.00
2018-12-07T04:21:11.253Z,0.00
2018-12-07T04:22:11.386Z,0.00
2018-12-07T04:23:11.523Z,0.00
2018-12-07T04:24:11.654Z,0.00
2018-12-07T04:25:11.880Z,0.00
2018-12-07T04:26:11.918Z,0.00
2018-12-07T04:27:12.055Z,0.00
2018-12-07T04:28:12.183Z,0.00
2018-12-07T04:29:12.329Z,0.00
2018-12-07T04:30:12.460Z,0.00
2018-12-07T04:31:12.593Z,0.00
2018-12-07T04:32:12.723Z,0.00
2018-12-07T04:33:12.858Z,0.00
2018-12-07T04:34:12.992Z,0.00
2018-12-07T04:35:13.125Z,0.00
2018-12-07T04:36:13.263Z,0.00
2018-12-07T04:37:13.389Z,0.00
2018-12-07T04:38:13.524Z,0.00
2018-12-07T04:39:13.657Z,0.00
2018-12-07T04:40:13.791Z,0.00
2018-12-07T04:41:13.920Z,0.00
2018-12-07T04:42:14.058Z,0.00
2018-12-07T04:43:14.198Z,0.00
2018-12-07T04:44:14.343Z,0.00
2018-12-07T04:45:14.466Z,0.00
2018-12-07T04:46:14.607Z,0.00
2018-12-07T04:47:14.747Z,0.00
2018-12-07T04:48:14.877Z,0.00
2018-12-07T04:49:15.497Z,0.00
2018-12-07T04:50:15.143Z,0.00
2018-12-07T04:51:15.273Z,0.00
2018-12-07T04:52:15.409Z,0.00
2018-12-07T04:53:15.543Z,0.00
2018-12-07T04:54:15.699Z,0.00
2018-12-07T04:55:15.824Z,0.00
2018-12-07T04:56:15.959Z,0.00
2018-12-07T04:57:16.093Z,0.00
2018-12-07T04:58:16.233Z,0.00
2018-12-07T04:59:16.361Z,0.00
2018-12-07T05:00:16.977Z,0.00
2018-12-07T05:01:16.622Z,0.00
2018-12-07T05:02:16.751Z,0.00
2018-12-07T05:03:16.877Z,0.00
2018-12-07T05:04:17.011Z,0.00
2018-12-07T05:05:17.143Z,0.00
2018-12-07T05:06:17.276Z,0.00
2018-12-07T05:07:17.437Z,0.00
2018-12-07T05:08:17.549Z,0.00
2018-12-07T05:09:17.679Z,0.00
2018-12-07T05:10:17.816Z,0.00
2018-12-07T05:11:17.952Z,0.00
2018-12-07T05:12:18.086Z,0.00
2018-12-07T05:13:18.215Z,0.00
2018-12-07T05:14:18.344Z,0.00
2018-12-07T05:15:18.484Z,0.00
2018-12-07T05:16:18.612Z,0.00
2018-12-07T05:17:18.746Z,0.00
2018-12-07T05:18:18.878Z,0.00
2018-12-07T05:19:19.012Z,0.00
2018-12-07T05:20:19.149Z,0.00
2018-12-07T05:21:19.277Z,0.00
2018-12-07T05:22:19.413Z,0.00
2018-12-07T05:23:19.541Z,0.00
2018-12-07T05:24:19.678Z,0.00
2018-12-07T05:25:19.810Z,0.00
2018-12-07T05:26:19.948Z,0.00
2018-12-07T05:27:20.083Z,0.00
2018-12-07T05:28:20.212Z,0.00
2018-12-07T05:29:20.355Z,0.00
2018-12-07T05:30:20.497Z,0.00
2018-12-07T05:31:20.619Z,0.00
2018-12-07T05:32:20.770Z,0.00
2018-12-07T05:33:20.898Z,0.00
2018-12-07T05:34:21.038Z,0.00
2018-12-07T05:35:21.171Z,0.00
2018-12-07T05:36:21.311Z,0.00
2018-12-07T05:37:21.439Z,0.00
2018-12-07T05:38:21.577Z,0.00
2018-12-07T05:39:21.707Z,0.00
2018-12-07T05:40:21.840Z,0.00
2018-12-07T05:41:21.983Z,0.00
2018-12-07T05:42:22.122Z,0.00
2018-12-07T05:43:22.245Z,0.00
2018-12-07T05:44:22.383Z,0.00
2018-12-07T05:45:22.513Z,0.00
2018-12-07T05:46:22.646Z,0.00
2018-12-07T05:47:22.787Z,0.00
2018-12-07T05:48:23.780Z,0.00
2018-12-07T05:49:23.058Z,0.00
2018-12-07T05:50:23.179Z,0.00
2018-12-07T05:51:23.310Z,0.00
2018-12-07T05:52:23.452Z,0.00
2018-12-07T05:53:23.582Z,0.00
2018-12-07T05:54:23.712Z,0.00
2018-12-07T05:55:23.845Z,0.00
2018-12-07T05:56:23.978Z,0.00
2018-12-07T05:57:24.110Z,0.00
2018-12-07T05:58:24.244Z,0.00
2018-12-07T05:59:24.382Z,0.00
2018-12-07T06:00:24.517Z,0.00
2018-12-07T06:01:25.493Z,0.00
2018-12-07T06:02:24.764Z,0.00
2018-12-07T06:03:24.892Z,0.00
2018-12-07T06:04:25.024Z,0.00
2018-12-07T06:05:25.157Z,0.00
2018-12-07T06:06:25.284Z,0.00
2018-12-07T06:07:25.418Z,0.00
2018-12-07T06:08:25.549Z,0.00
2018-12-07T06:09:25.678Z,0.00
2018-12-07T06:10:25.819Z,0.00
2018-12-07T06:11:25.944Z,0.00
2018-12-07T06:12:26.075Z,0.00
2018-12-07T06:13:26.212Z,0.00
2018-12-07T06:14:26.346Z,0.00
2018-12-07T06:15:26.471Z,0.00
2018-12-07T06:16:26.606Z,0.00
2018-12-07T06:17:26.738Z,0.00
2018-12-07T06:18:26.875Z,0.00
2018-12-07T06:19:27.007Z,0.00
2018-12-07T06:20:27.145Z,0.00
2018-12-07T06:21:27.278Z,0.00
2018-12-07T06:22:27.411Z,0.00
2018-12-07T06:23:27.549Z,0.00
2018-12-07T06:24:27.676Z,0.00
2018-12-07T06:25:27.813Z,0.00
2018-12-07T06:26:27.946Z,0.00
2018-12-07T06:27:28.077Z,0.00
2018-12-07T06:28:28.213Z,0.00
2018-12-07T06:29:28.349Z,0.00
2018-12-07T06:30:28.482Z,0.00
2018-12-07T06:31:28.613Z,0.00
2018-12-07T06:32:35.934Z,0.00
2018-12-07T06:33:28.885Z,0.00
2018-12-07T06:34:29.015Z,0.00
2018-12-07T06:35:29.149Z,0.00
2018-12-07T06:36:29.283Z,0.00
2018-12-07T06:37:29.412Z,0.00
2018-12-07T06:38:29.545Z,0.00
2018-12-07T06:39:29.679Z,0.00
2018-12-07T06:40:29.811Z,0.00
2018-12-07T06:41:29.949Z,0.00
2018-12-07T06:42:30.080Z,0.00
2018-12-07T06:43:30.218Z,0.00
2018-12-07T06:44:30.995Z,0.00
2018-12-07T06:45:30.498Z,0.00
2018-12-07T06:46:30.631Z,0.00
2018-12-07T06:47:31.497Z,0.00
2018-12-07T06:48:30.889Z,0.00
2018-12-07T06:49:31.023Z,0.00
2018-12-07T06:50:31.154Z,0.00
2018-12-07T06:51:31.287Z,4.00
2018-12-07T06:52:31.422Z,4.00
2018-12-07T06:53:31.561Z,4.00
2018-12-07T06:54:31.696Z,0.00
2018-12-07T06:55:31.828Z,4.00
2018-12-07T06:56:31.969Z,4.00
2018-12-07T06:57:32.103Z,4.00
2018-12-07T06:58:32.232Z,8.00
2018-12-07T06:59:32.366Z,4.00
2018-12-07T07:00:32.574Z,4.00
2018-12-07T07:01:32.632Z,8.00
2018-12-07T07:02:32.762Z,8.00
2018-12-07T07:03:32.899Z,12.00
2018-12-07T07:04:33.033Z,8.00
2018-12-07T07:05:33.165Z,12.00
2018-12-07T07:06:33.300Z,16.00
2018-12-07T07:07:33.424Z,12.00
2018-12-07T07:08:33.572Z,12.00
2018-12-07T07:09:33.814Z,16.00
2018-12-07T07:12:06.597Z,20.00
2018-12-07T07:13:06.735Z,20.00
2018-12-07T07:14:06.886Z,20.00
2018-12-07T07:15:07.026Z,20.00
2018-12-07T07:16:07.196Z,28.00
2018-12-07T07:17:07.329Z,24.00
2018-12-07T07:18:07.465Z,28.00
2018-12-07T07:19:07.595Z,28.00
2018-12-07T07:20:07.750Z,28.00
2018-12-07T07:21:07.882Z,32.00
2018-12-07T07:22:08.015Z,36.00
2018-12-07T07:23:08.150Z,32.00
2018-12-07T07:24:08.279Z,32.00
2018-12-07T07:25:08.409Z,36.00
2018-12-07T07:26:08.542Z,36.00
2018-12-07T07:27:08.676Z,36.00
2018-12-07T07:28:08.810Z,40.00
2018-12-07T07:29:08.937Z,44.00
2018-12-07T07:30:09.077Z,44.00
2018-12-07T07:31:09.214Z,48.00
2018-12-07T07:32:09.364Z,44.00
2018-12-07T07:33:24.407Z,48.00
2018-12-07T07:34:09.661Z,48.00
2018-12-07T07:35:09.792Z,44.00
2018-12-07T07:36:09.936Z,48.00
2018-12-07T07:37:10.071Z,52.00
2018-12-07T07:38:10.199Z,56.00
2018-12-07T07:39:10.335Z,52.00
2018-12-07T07:40:10.499Z,56.00
2018-12-07T07:41:25.409Z,60.00
2018-12-07T07:42:10.812Z,64.00
2018-12-07T07:43:10.912Z,56.00
2018-12-07T07:44:11.076Z,56.00
2018-12-07T07:45:25.904Z,52.00
2018-12-07T07:46:11.290Z,60.00
2018-12-07T07:47:11.423Z,60.00
2018-12-07T07:48:11.559Z,60.00
2018-12-07T07:49:11.729Z,64.00
2018-12-07T07:50:11.858Z,60.00
2018-12-07T07:51:11.992Z,52.00
2018-12-07T07:52:12.125Z,52.00
2018-12-07T07:53:12.300Z,56.00
2018-12-07T07:54:12.412Z,56.00
2018-12-07T07:55:12.547Z,56.00
2018-12-07T07:56:15.508Z,60.00
2018-12-07T07:57:12.856Z,68.00
2018-12-07T07:58:12.984Z,68.00
2018-12-07T07:59:13.902Z,72.00
2018-12-07T08:00:13.334Z,80.00
2018-12-07T08:01:41.805Z,84.00
2018-12-07T08:02:13.553Z,80.00
2018-12-07T08:03:13.684Z,88.00
2018-12-07T08:04:13.844Z,100.00
2018-12-07T08:05:41.493Z,104.00
2018-12-07T08:06:14.111Z,104.00
2018-12-07T08:07:14.237Z,108.00
2018-12-07T08:08:14.374Z,104.00
2018-12-07T08:09:22.809Z,108.00
2018-12-07T08:10:14.690Z,108.00
2018-12-07T08:11:14.819Z,116.00
2018-12-07T08:12:14.975Z,116.00
2018-12-07T08:13:36.102Z,120.00
2018-12-07T08:14:15.225Z,124.00
2018-12-07T08:15:15.361Z,124.00
2018-12-07T08:16:15.510Z,132.00
2018-12-07T08:17:16.336Z,120.00
2018-12-07T08:18:15.767Z,124.00
2018-12-07T08:19:15.896Z,132.00
2018-12-07T08:20:16.088Z,140.00
2018-12-07T08:21:16.234Z,136.00
2018-12-07T08:22:16.363Z,144.00
2018-12-07T08:23:16.496Z,148.00
2018-12-07T08:24:16.632Z,164.00
2018-12-07T08:25:16.761Z,168.00
2018-12-07T08:26:16.896Z,172.00
2018-12-07T08:27:17.034Z,196.00
2018-12-07T08:28:17.174Z,196.00
2018-12-07T08:29:17.307Z,192.00
2018-12-07T08:30:17.439Z,208.00
2018-12-07T08:31:17.574Z,220.00
2018-12-07T08:32:17.701Z,240.00
2018-12-07T08:33:17.847Z,228.00
2018-12-07T08:34:17.979Z,248.00
2018-12-07T08:35:18.112Z,272.00
2018-12-07T08:36:18.249Z,292.00
2018-12-07T08:37:18.376Z,284.00
2018-12-07T08:38:18.507Z,292.00
2018-12-07T08:39:18.640Z,300.00
2018-12-07T08:40:18.780Z,292.00
2018-12-07T08:41:18.911Z,308.00
2018-12-07T08:42:19.048Z,280.00
2018-12-07T08:43:19.182Z,296.00
2018-12-07T08:44:19.318Z,308.00
2018-12-07T08:45:19.454Z,344.00
2018-12-07T08:46:19.585Z,356.00
2018-12-07T08:47:19.718Z,368.00
2018-12-07T08:48:19.854Z,440.00
2018-12-07T08:49:19.986Z,416.00
2018-12-07T08:50:20.115Z,404.00
2018-12-07T08:51:20.331Z,376.00
2018-12-07T08:52:20.376Z,364.00
2018-12-07T08:53:20.509Z,356.00
2018-12-07T08:54:20.641Z,348.00
2018-12-07T08:55:20.773Z,288.00
2018-12-07T08:56:20.904Z,272.00
2018-12-07T08:57:21.047Z,244.00
2018-12-07T08:58:21.181Z,252.00
2018-12-07T08:59:21.314Z,244.00
2018-12-07T09:00:21.459Z,256.00
2018-12-07T09:01:21.588Z,288.00
2018-12-07T09:02:21.721Z,316.00
2018-12-07T09:03:21.849Z,292.00
2018-12-07T09:04:21.984Z,328.00
2018-12-07T09:05:22.118Z,320.00
2018-12-07T09:06:22.254Z,320.00
2018-12-07T09:07:22.390Z,356.00
2018-12-07T09:08:22.524Z,340.00
2018-12-07T09:09:22.658Z,372.00
2018-12-07T09:10:22.794Z,392.00
2018-12-07T09:11:22.924Z,388.00
2018-12-07T09:12:23.056Z,396.00
2018-12-07T09:13:23.191Z,364.00
2018-12-07T09:14:23.324Z,356.00
2018-12-07T09:15:23.456Z,396.00
2018-12-07T09:16:23.594Z,376.00
2018-12-07T09:17:23.726Z,432.00
2018-12-07T09:18:23.873Z,476.00
2018-12-07T09:19:24.008Z,452.00
2018-12-07T09:20:24.151Z,532.00
2018-12-07T09:21:24.283Z,572.00
2018-12-07T09:22:24.409Z,560.00
2018-12-07T09:23:24.541Z,604.00
2018-12-07T09:24:24.682Z,640.00
2018-12-07T09:25:24.818Z,664.00
2018-12-07T09:26:24.966Z,688.00
2018-12-07T09:27:25.089Z,668.00
2018-12-07T09:28:25.229Z,676.00
2018-12-07T09:29:25.354Z,592.00
2018-12-07T09:30:25.484Z,592.00
2018-12-07T09:31:25.618Z,696.00
2018-12-07T09:32:25.753Z,668.00
2018-12-07T09:33:25.883Z,612.00
2018-12-07T09:34:26.015Z,592.00
2018-12-07T09:35:26.147Z,588.00
2018-12-07T09:36:26.282Z,548.00
2018-12-07T09:37:26.416Z,512.00
2018-12-07T09:38:26.552Z,508.00
2018-12-07T09:39:26.676Z,524.00
2018-12-07T09:40:26.811Z,544.00
2018-12-07T09:41:26.940Z,528.00
2018-12-07T09:42:27.072Z,524.00
2018-12-07T09:43:27.204Z,524.00
2018-12-07T09:44:27.337Z,512.00
2018-12-07T09:45:27.467Z,508.00
2018-12-07T09:46:27.607Z,492.00
2018-12-07T09:47:27.740Z,492.00
2018-12-07T09:48:27.878Z,504.00
2018-12-07T09:49:28.017Z,544.00
2018-12-07T09:50:28.146Z,556.00
2018-12-07T09:51:28.279Z,520.00
2018-12-07T09:52:28.407Z,480.00
2018-12-07T09:53:28.543Z,488.00
2018-12-07T09:54:28.679Z,476.00
2018-12-07T09:55:28.811Z,472.00
2018-12-07T09:56:28.945Z,464.00
2018-12-07T09:57:29.081Z,468.00
2018-12-07T09:58:29.212Z,456.00
2018-12-07T09:59:29.342Z,460.00
2018-12-07T10:00:29.485Z,496.00
2018-12-07T10:01:29.622Z,548.00
2018-12-07T10:02:29.763Z,552.00
2018-12-07T10:03:29.889Z,540.00
2018-12-07T10:04:30.022Z,524.00
2018-12-07T10:05:30.203Z,520.00
2018-12-07T10:06:30.454Z,500.00
2018-12-07T10:07:30.463Z,500.00
2018-12-07T10:08:30.591Z,512.00
2018-12-07T10:09:30.721Z,516.00
2018-12-07T10:10:32.015Z,520.00
2018-12-07T10:11:30.991Z,528.00
2018-12-07T10:12:31.129Z,480.00
2018-12-07T10:13:31.261Z,520.00
2018-12-07T10:14:31.396Z,516.00
2018-12-07T10:15:32.277Z,504.00
2018-12-07T10:16:31.678Z,556.00
2018-12-07T10:17:31.806Z,556.00
2018-12-07T10:18:31.947Z,564.00
2018-12-07T10:19:32.075Z,580.00
2018-12-07T10:20:32.210Z,560.00
2018-12-07T10:21:32.338Z,612.00
2018-12-07T10:22:32.476Z,636.00
2018-12-07T10:23:32.601Z,680.00
2018-12-07T10:24:32.735Z,656.00
2018-12-07T10:25:32.865Z,696.00
2018-12-07T10:26:33.008Z,772.00
2018-12-07T10:27:33.140Z,832.00
2018-12-07T10:28:33.275Z,1024.00
2018-12-07T10:29:33.406Z,1188.00
2018-12-07T10:30:33.536Z,1220.00
2018-12-07T10:31:33.672Z,1260.00
2018-12-07T10:32:33.815Z,1264.00
2018-12-07T10:33:33.961Z,1176.00
2018-12-07T10:34:34.104Z,1248.00
2018-12-07T10:35:34.230Z,1300.00
2018-12-07T10:36:34.364Z,1216.00
2018-12-07T10:37:34.493Z,1084.00
2018-12-07T10:38:34.623Z,1164.00
2018-12-07T10:39:34.762Z,1036.00
2018-12-07T10:40:34.894Z,1060.00
2018-12-07T10:41:35.035Z,1032.00
2018-12-07T10:42:35.168Z,880.00
2018-12-07T10:43:35.300Z,856.00
2018-12-07T10:44:36.279Z,824.00
2018-12-07T10:45:35.607Z,768.00
2018-12-07T10:46:35.743Z,692.00
2018-12-07T10:47:35.883Z,632.00
2018-12-07T10:48:36.017Z,580.00
2018-12-07T10:49:36.149Z,488.00
2018-12-07T10:50:36.285Z,496.00
2018-12-07T10:51:36.416Z,440.00
2018-12-07T10:52:36.547Z,432.00
2018-12-07T10:53:36.679Z,424.00
2018-12-07T10:54:36.814Z,428.00
2018-12-07T10:55:36.941Z,424.00
2018-12-07T10:56:37.069Z,412.00
2018-12-07T10:57:37.208Z,444.00
2018-12-07T10:58:37.349Z,468.00
2018-12-07T10:59:37.482Z,476.00
2018-12-07T11:00:37.620Z,468.00
2018-12-07T11:01:37.751Z,484.00
2018-12-07T11:02:38.206Z,448.00
2018-12-07T11:03:38.017Z,460.00
2018-12-07T11:04:38.152Z,456.00
2018-12-07T11:05:38.286Z,456.00
2018-12-07T11:06:38.418Z,436.00
2018-12-07T11:07:38.550Z,428.00
2018-12-07T11:08:38.685Z,432.00
2018-12-07T11:09:38.810Z,416.00
2018-12-07T11:10:38.953Z,412.00
2018-12-07T11:11:39.093Z,416.00
2018-12-07T11:12:39.226Z,416.00
2018-12-07T11:13:39.356Z,408.00
2018-12-07T11:14:39.491Z,412.00
2018-12-07T11:15:39.624Z,400.00
2018-12-07T11:16:39.760Z,372.00
2018-12-07T11:17:39.887Z,368.00
2018-12-07T11:18:40.017Z,376.00
2018-12-07T11:19:40.152Z,368.00
2018-12-07T11:20:40.291Z,368.00
2018-12-07T11:21:40.423Z,360.00
2018-12-07T11:22:40.558Z,348.00
2018-12-07T11:23:40.692Z,352.00
2018-12-07T11:24:40.822Z,352.00
2018-12-07T11:25:40.955Z,352.00
2018-12-07T11:26:41.094Z,340.00
2018-12-07T11:27:41.220Z,316.00
2018-12-07T11:28:41.359Z,320.00
2018-12-07T11:29:41.484Z,328.00
2018-12-07T11:30:41.626Z,336.00
2018-12-07T11:31:41.761Z,336.00
2018-12-07T11:32:41.897Z,328.00
2018-12-07T11:33:42.035Z,304.00
2018-12-07T11:34:42.171Z,296.00
2018-12-07T11:35:42.302Z,288.00
2018-12-07T11:36:42.434Z,272.00
2018-12-07T11:37:42.580Z,264.00
2018-12-07T11:38:42.713Z,272.00
2018-12-07T11:39:42.845Z,276.00
2018-12-07T11:40:42.978Z,272.00
2018-12-07T11:41:43.109Z,264.00
2018-12-07T11:42:43.241Z,264.00
2018-12-07T11:43:43.374Z,280.00
2018-12-07T11:44:43.509Z,288.00
2018-12-07T11:45:43.643Z,316.00
2018-12-07T11:46:43.772Z,332.00
2018-12-07T11:47:43.905Z,344.00
2018-12-07T11:48:44.081Z,332.00
2018-12-07T11:49:44.173Z,344.00
2018-12-07T11:50:44.311Z,332.00
2018-12-07T11:51:44.443Z,348.00
2018-12-07T11:52:44.579Z,356.00
2018-12-07T11:53:44.707Z,368.00
2018-12-07T11:54:44.842Z,396.00
2018-12-07T11:55:44.970Z,372.00
2018-12-07T11:56:45.114Z,376.00
2018-12-07T11:57:45.247Z,380.00
2018-12-07T11:58:45.376Z,392.00
2018-12-07T11:59:45.509Z,384.00
2018-12-07T12:00:45.653Z,392.00
2018-12-07T12:01:45.785Z,396.00
2018-12-07T12:02:45.919Z,396.00
2018-12-07T12:03:46.049Z,360.00
2018-12-07T12:04:46.188Z,356.00
2018-12-07T12:05:46.317Z,380.00
2018-12-07T12:06:46.452Z,372.00
2018-12-07T12:07:46.589Z,376.00
2018-12-07T12:08:46.720Z,372.00
2018-12-07T12:09:46.849Z,344.00
2018-12-07T12:10:46.985Z,344.00
2018-12-07T12:11:47.115Z,336.00
2018-12-07T12:12:47.281Z,320.00
2018-12-07T12:13:47.388Z,316.00
2018-12-07T12:14:47.514Z,344.00
2018-12-07T12:15:47.654Z,332.00
2018-12-07T12:16:47.788Z,348.00
2018-12-07T12:17:47.926Z,336.00
2018-12-07T12:18:48.055Z,348.00
2018-12-07T12:19:48.190Z,356.00
2018-12-07T12:20:48.339Z,364.00
2018-12-07T12:21:48.471Z,348.00
2018-12-07T12:22:48.608Z,376.00
2018-12-07T12:23:53.687Z,384.00
2018-12-07T12:24:48.878Z,384.00
2018-12-07T12:25:49.016Z,416.00
2018-12-07T12:26:49.140Z,384.00
2018-12-07T12:27:49.269Z,380.00
2018-12-07T12:28:49.405Z,376.00
2018-12-07T12:29:49.539Z,364.00
2018-12-07T12:30:49.675Z,352.00
2018-12-07T12:31:49.810Z,332.00
2018-12-07T12:32:49.941Z,336.00
2018-12-07T12:33:50.070Z,340.00
2018-12-07T12:34:50.214Z,352.00
2018-12-07T12:35:50.349Z,340.00
2018-12-07T12:36:50.488Z,312.00
2018-12-07T12:37:50.624Z,304.00
2018-12-07T12:38:50.755Z,300.00
2018-12-07T12:39:50.887Z,308.00
2018-12-07T12:40:51.016Z,304.00
2018-12-07T12:41:51.151Z,304.00
2018-12-07T12:42:51.284Z,328.00
2018-12-07T12:43:51.420Z,320.00
2018-12-07T12:44:51.550Z,340.00
2018-12-07T12:45:51.689Z,404.00
2018-12-07T12:46:51.814Z,448.00
2018-12-07T12:47:51.943Z,416.00
2018-12-07T12:48:52.082Z,432.00
2018-12-07T12:49:52.208Z,452.00
2018-12-07T12:50:52.345Z,416.00
2018-12-07T12:51:52.489Z,404.00
2018-12-07T12:52:52.625Z,408.00
2018-12-07T12:53:52.761Z,392.00
2018-12-07T12:54:52.895Z,408.00
2018-12-07T12:55:53.045Z,440.00
2018-12-07T12:56:53.179Z,508.00
2018-12-07T12:57:53.310Z,524.00
2018-12-07T12:58:53.441Z,524.00
2018-12-07T12:59:53.567Z,504.00